sensor_id;sensor_type;location;lat;lon;timestamp;P1;durP1;ratioP1;P2;durP2;ratioP2
44764;SDS011;30484;52.382;5.260;2023-02-03T00:00:33;22.73;;;3.40;;
44764;SDS011;30484;52.382;5.260;2023-02-03T00:03:01;16.88;;;3.13;;
44764;SDS011;30484;52.382;5.260;2023-02-03T00:05:30;21.48;;;3.78;;
44764;SDS011;30484;52.382;5.260;2023-02-03T00:08:01;19.55;;;3.85;;
44764;SDS011;30484;52.382;5.260;2023-02-03T00:10:32;21.33;;;3.28;;
44764;SDS011;30484;52.382;5.260;2023-02-03T00:13:01;18.98;;;3.38;;
44764;SDS011;30484;52.382;5.260;2023-02-03T00:15:29;23.02;;;3.72;;
44764;SDS011;30484;52.382;5.260;2023-02-03T00:17:58;20.80;;;3.40;;
44764;SDS011;30484;52.382;5.260;2023-02-03T00:20:27;17.38;;;3.10;;
44764;SDS011;30484;52.382;5.260;2023-02-03T00:23:02;18.85;;;2.83;;
44764;SDS011;30484;52.382;5.260;2023-02-03T00:25:32;22.15;;;3.78;;
44764;SDS011;30484;52.382;5.260;2023-02-03T00:28:01;17.65;;;3.15;;
44764;SDS011;30484;52.382;5.260;2023-02-03T00:30:32;20.45;;;3.22;;
44764;SDS011;30484;52.382;5.260;2023-02-03T00:33:01;20.77;;;3.53;;
44764;SDS011;30484;52.382;5.260;2023-02-03T00:35:32;31.52;;;3.65;;
44764;SDS011;30484;52.382;5.260;2023-02-03T00:38:00;33.05;;;3.30;;
44764;SDS011;30484;52.382;5.260;2023-02-03T00:40:30;22.70;;;3.40;;
44764;SDS011;30484;52.382;5.260;2023-02-03T00:42:59;16.48;;;3.08;;
44764;SDS011;30484;52.382;5.260;2023-02-03T00:45:27;18.23;;;2.55;;
44764;SDS011;30484;52.382;5.260;2023-02-03T00:47:56;19.45;;;2.95;;
44764;SDS011;30484;52.382;5.260;2023-02-03T00:50:25;26.95;;;3.88;;
44764;SDS011;30484;52.382;5.260;2023-02-03T00:52:54;24.52;;;3.22;;
44764;SDS011;30484;52.382;5.260;2023-02-03T00:55:24;19.27;;;3.10;;
44764;SDS011;30484;52.382;5.260;2023-02-03T00:57:53;21.48;;;3.33;;
44764;SDS011;30484;52.382;5.260;2023-02-03T01:00:21;26.08;;;3.85;;
44764;SDS011;30484;52.382;5.260;2023-02-03T01:02:51;28.33;;;3.42;;
44764;SDS011;30484;52.382;5.260;2023-02-03T01:05:20;27.27;;;3.13;;
44764;SDS011;30484;52.382;5.260;2023-02-03T01:07:48;21.23;;;3.10;;
44764;SDS011;30484;52.382;5.260;2023-02-03T01:10:17;23.00;;;3.60;;
44764;SDS011;30484;52.382;5.260;2023-02-03T01:12:47;20.13;;;3.20;;
44764;SDS011;30484;52.382;5.260;2023-02-03T01:15:16;18.08;;;2.92;;
44764;SDS011;30484;52.382;5.260;2023-02-03T01:17:45;20.35;;;3.42;;
44764;SDS011;30484;52.382;5.260;2023-02-03T01:20:14;17.92;;;2.58;;
44764;SDS011;30484;52.382;5.260;2023-02-03T01:22:42;17.33;;;3.33;;
44764;SDS011;30484;52.382;5.260;2023-02-03T01:25:11;19.70;;;2.88;;
44764;SDS011;30484;52.382;5.260;2023-02-03T01:27:39;12.88;;;2.72;;
44764;SDS011;30484;52.382;5.260;2023-02-03T01:30:10;17.40;;;2.60;;
44764;SDS011;30484;52.382;5.260;2023-02-03T01:32:39;21.30;;;3.00;;
44764;SDS011;30484;52.382;5.260;2023-02-03T01:35:09;24.85;;;3.13;;
44764;SDS011;30484;52.382;5.260;2023-02-03T01:37:37;19.90;;;2.83;;
44764;SDS011;30484;52.382;5.260;2023-02-03T01:40:06;28.02;;;3.10;;
44764;SDS011;30484;52.382;5.260;2023-02-03T01:42:36;15.38;;;2.70;;
44764;SDS011;30484;52.382;5.260;2023-02-03T01:45:05;15.25;;;2.60;;
44764;SDS011;30484;52.382;5.260;2023-02-03T01:47:41;18.77;;;2.67;;
44764;SDS011;30484;52.382;5.260;2023-02-03T01:50:15;15.05;;;2.90;;
44764;SDS011;30484;52.382;5.260;2023-02-03T01:52:48;22.27;;;3.00;;
44764;SDS011;30484;52.382;5.260;2023-02-03T01:55:24;16.27;;;2.90;;
44764;SDS011;30484;52.382;5.260;2023-02-03T01:57:57;15.50;;;2.67;;
44764;SDS011;30484;52.382;5.260;2023-02-03T02:00:31;20.15;;;2.55;;
44764;SDS011;30484;52.382;5.260;2023-02-03T02:03:02;17.38;;;2.55;;
44764;SDS011;30484;52.382;5.260;2023-02-03T02:05:33;19.58;;;2.50;;
44764;SDS011;30484;52.382;5.260;2023-02-03T02:08:05;15.48;;;2.75;;
44764;SDS011;30484;52.382;5.260;2023-02-03T02:10:35;21.50;;;2.67;;
44764;SDS011;30484;52.382;5.260;2023-02-03T02:13:04;17.02;;;2.55;;
44764;SDS011;30484;52.382;5.260;2023-02-03T02:15:46;14.68;;;2.20;;
44764;SDS011;30484;52.382;5.260;2023-02-03T02:18:35;22.52;;;2.40;;
44764;SDS011;30484;52.382;5.260;2023-02-03T02:21:29;16.80;;;3.05;;
44764;SDS011;30484;52.382;5.260;2023-02-03T02:27:44;16.45;;;2.67;;
44764;SDS011;30484;52.382;5.260;2023-02-03T02:34:01;14.93;;;2.47;;
44764;SDS011;30484;52.382;5.260;2023-02-03T02:36:41;17.92;;;1.90;;
44764;SDS011;30484;52.382;5.260;2023-02-03T02:39:24;15.65;;;2.70;;
44764;SDS011;30484;52.382;5.260;2023-02-03T02:42:05;17.88;;;2.47;;
44764;SDS011;30484;52.382;5.260;2023-02-03T02:44:43;18.98;;;2.78;;
44764;SDS011;30484;52.382;5.260;2023-02-03T02:47:16;16.37;;;2.33;;
44764;SDS011;30484;52.382;5.260;2023-02-03T02:49:51;19.17;;;2.78;;
44764;SDS011;30484;52.382;5.260;2023-02-03T02:52:26;15.38;;;2.22;;
44764;SDS011;30484;52.382;5.260;2023-02-03T02:55:03;14.88;;;2.40;;
44764;SDS011;30484;52.382;5.260;2023-02-03T02:57:40;15.52;;;2.60;;
44764;SDS011;30484;52.382;5.260;2023-02-03T03:00:11;14.63;;;2.10;;
44764;SDS011;30484;52.382;5.260;2023-02-03T03:02:42;15.43;;;2.28;;
44764;SDS011;30484;52.382;5.260;2023-02-03T03:05:14;13.45;;;2.65;;
44764;SDS011;30484;52.382;5.260;2023-02-03T03:07:47;12.25;;;1.58;;
44764;SDS011;30484;52.382;5.260;2023-02-03T03:10:23;14.55;;;2.22;;
44764;SDS011;30484;52.382;5.260;2023-02-03T03:12:56;11.15;;;1.83;;
44764;SDS011;30484;52.382;5.260;2023-02-03T03:15:32;17.30;;;2.88;;
44764;SDS011;30484;52.382;5.260;2023-02-03T03:18:08;15.90;;;2.92;;
44764;SDS011;30484;52.382;5.260;2023-02-03T03:20:46;17.05;;;2.15;;
44764;SDS011;30484;52.382;5.260;2023-02-03T03:23:18;16.63;;;2.63;;
44764;SDS011;30484;52.382;5.260;2023-02-03T03:25:53;12.35;;;2.75;;
44764;SDS011;30484;52.382;5.260;2023-02-03T03:28:29;12.73;;;2.22;;
44764;SDS011;30484;52.382;5.260;2023-02-03T03:31:06;17.23;;;1.92;;
44764;SDS011;30484;52.382;5.260;2023-02-03T03:33:35;18.58;;;2.38;;
44764;SDS011;30484;52.382;5.260;2023-02-03T03:36:07;19.60;;;2.67;;
44764;SDS011;30484;52.382;5.260;2023-02-03T03:38:49;16.02;;;2.00;;
44764;SDS011;30484;52.382;5.260;2023-02-03T03:41:29;15.10;;;2.53;;
44764;SDS011;30484;52.382;5.260;2023-02-03T03:44:08;15.35;;;2.65;;
44764;SDS011;30484;52.382;5.260;2023-02-03T03:46:42;12.43;;;2.17;;
44764;SDS011;30484;52.382;5.260;2023-02-03T03:49:17;17.75;;;3.13;;
44764;SDS011;30484;52.382;5.260;2023-02-03T03:51:54;22.10;;;2.67;;
44764;SDS011;30484;52.382;5.260;2023-02-03T03:54:28;18.10;;;2.50;;
44764;SDS011;30484;52.382;5.260;2023-02-03T03:56:59;11.20;;;2.58;;
44764;SDS011;30484;52.382;5.260;2023-02-03T03:59:34;14.50;;;2.30;;
44764;SDS011;30484;52.382;5.260;2023-02-03T04:02:07;11.40;;;2.05;;
44764;SDS011;30484;52.382;5.260;2023-02-03T04:04:36;12.57;;;2.30;;
44764;SDS011;30484;52.382;5.260;2023-02-03T04:07:08;21.02;;;2.97;;
44764;SDS011;30484;52.382;5.260;2023-02-03T04:09:39;17.40;;;2.35;;
44764;SDS011;30484;52.382;5.260;2023-02-03T04:12:12;15.98;;;2.35;;
44764;SDS011;30484;52.382;5.260;2023-02-03T04:14:49;17.35;;;2.85;;
44764;SDS011;30484;52.382;5.260;2023-02-03T04:17:18;22.92;;;2.97;;
44764;SDS011;30484;52.382;5.260;2023-02-03T04:19:46;19.42;;;2.30;;
44764;SDS011;30484;52.382;5.260;2023-02-03T04:22:18;18.15;;;2.58;;
44764;SDS011;30484;52.382;5.260;2023-02-03T04:24:47;16.88;;;2.35;;
44764;SDS011;30484;52.382;5.260;2023-02-03T04:27:16;17.15;;;2.55;;
44764;SDS011;30484;52.382;5.260;2023-02-03T04:29:46;23.90;;;2.97;;
44764;SDS011;30484;52.382;5.260;2023-02-03T04:32:16;14.98;;;2.78;;
44764;SDS011;30484;52.382;5.260;2023-02-03T04:34:45;18.38;;;2.53;;
44764;SDS011;30484;52.382;5.260;2023-02-03T04:37:14;14.43;;;2.35;;
44764;SDS011;30484;52.382;5.260;2023-02-03T04:39:44;14.48;;;2.30;;
44764;SDS011;30484;52.382;5.260;2023-02-03T04:42:14;19.95;;;2.60;;
44764;SDS011;30484;52.382;5.260;2023-02-03T04:44:44;14.55;;;2.72;;
44764;SDS011;30484;52.382;5.260;2023-02-03T04:47:13;20.88;;;3.03;;
44764;SDS011;30484;52.382;5.260;2023-02-03T04:49:42;14.95;;;2.53;;
44764;SDS011;30484;52.382;5.260;2023-02-03T04:52:11;16.05;;;2.38;;
44764;SDS011;30484;52.382;5.260;2023-02-03T04:54:40;16.73;;;2.53;;
44764;SDS011;30484;52.382;5.260;2023-02-03T04:57:10;18.08;;;2.63;;
44764;SDS011;30484;52.382;5.260;2023-02-03T04:59:39;16.38;;;2.45;;
44764;SDS011;30484;52.382;5.260;2023-02-03T05:02:08;18.90;;;2.42;;
44764;SDS011;30484;52.382;5.260;2023-02-03T05:04:37;17.40;;;2.90;;
44764;SDS011;30484;52.382;5.260;2023-02-03T05:07:06;21.88;;;2.50;;
44764;SDS011;30484;52.382;5.260;2023-02-03T05:09:36;20.52;;;2.67;;
44764;SDS011;30484;52.382;5.260;2023-02-03T05:12:05;24.05;;;2.63;;
44764;SDS011;30484;52.382;5.260;2023-02-03T05:14:35;17.23;;;2.83;;
44764;SDS011;30484;52.382;5.260;2023-02-03T05:17:03;19.13;;;2.63;;
44764;SDS011;30484;52.382;5.260;2023-02-03T05:19:32;17.75;;;2.92;;
44764;SDS011;30484;52.382;5.260;2023-02-03T05:22:06;23.45;;;2.88;;
44764;SDS011;30484;52.382;5.260;2023-02-03T05:24:50;15.18;;;2.30;;
44764;SDS011;30484;52.382;5.260;2023-02-03T05:27:30;19.27;;;2.90;;
44764;SDS011;30484;52.382;5.260;2023-02-03T05:30:00;27.48;;;3.10;;
44764;SDS011;30484;52.382;5.260;2023-02-03T05:32:30;19.45;;;2.42;;
44764;SDS011;30484;52.382;5.260;2023-02-03T05:34:59;21.77;;;2.92;;
44764;SDS011;30484;52.382;5.260;2023-02-03T05:37:29;17.35;;;2.90;;
44764;SDS011;30484;52.382;5.260;2023-02-03T05:39:58;14.65;;;2.83;;
44764;SDS011;30484;52.382;5.260;2023-02-03T05:42:44;15.15;;;2.30;;
44764;SDS011;30484;52.382;5.260;2023-02-03T05:45:15;28.00;;;3.45;;
44764;SDS011;30484;52.382;5.260;2023-02-03T05:47:46;18.23;;;2.88;;
44764;SDS011;30484;52.382;5.260;2023-02-03T05:50:15;21.80;;;3.33;;
44764;SDS011;30484;52.382;5.260;2023-02-03T05:52:43;22.92;;;2.80;;
44764;SDS011;30484;52.382;5.260;2023-02-03T05:55:12;25.65;;;3.97;;
44764;SDS011;30484;52.382;5.260;2023-02-03T05:57:40;18.63;;;2.88;;
44764;SDS011;30484;52.382;5.260;2023-02-03T06:00:09;23.95;;;2.88;;
44764;SDS011;30484;52.382;5.260;2023-02-03T06:02:42;21.83;;;2.70;;
44764;SDS011;30484;52.382;5.260;2023-02-03T06:05:10;19.35;;;2.50;;
44764;SDS011;30484;52.382;5.260;2023-02-03T06:07:39;23.98;;;3.58;;
44764;SDS011;30484;52.382;5.260;2023-02-03T06:10:09;22.42;;;3.35;;
44764;SDS011;30484;52.382;5.260;2023-02-03T06:12:38;18.90;;;2.88;;
44764;SDS011;30484;52.382;5.260;2023-02-03T06:15:08;22.27;;;2.50;;
44764;SDS011;30484;52.382;5.260;2023-02-03T06:17:42;26.40;;;3.22;;
44764;SDS011;30484;52.382;5.260;2023-02-03T06:20:13;29.25;;;3.20;;
44764;SDS011;30484;52.382;5.260;2023-02-03T06:22:44;20.77;;;3.38;;
44764;SDS011;30484;52.382;5.260;2023-02-03T06:25:14;22.85;;;2.88;;
44764;SDS011;30484;52.382;5.260;2023-02-03T06:27:43;18.88;;;2.55;;
44764;SDS011;30484;52.382;5.260;2023-02-03T06:30:14;23.23;;;2.83;;
44764;SDS011;30484;52.382;5.260;2023-02-03T06:32:44;19.38;;;3.55;;
44764;SDS011;30484;52.382;5.260;2023-02-03T06:35:19;22.58;;;3.88;;
44764;SDS011;30484;52.382;5.260;2023-02-03T06:37:47;23.67;;;3.50;;
44764;SDS011;30484;52.382;5.260;2023-02-03T06:40:17;19.48;;;2.78;;
44764;SDS011;30484;52.382;5.260;2023-02-03T06:42:46;18.60;;;3.03;;
44764;SDS011;30484;52.382;5.260;2023-02-03T06:45:16;15.68;;;3.15;;
44764;SDS011;30484;52.382;5.260;2023-02-03T06:47:47;33.33;;;4.03;;
44764;SDS011;30484;52.382;5.260;2023-02-03T06:50:16;20.48;;;2.78;;
44764;SDS011;30484;52.382;5.260;2023-02-03T06:52:45;20.77;;;3.00;;
44764;SDS011;30484;52.382;5.260;2023-02-03T06:55:16;15.40;;;2.78;;
44764;SDS011;30484;52.382;5.260;2023-02-03T06:57:47;19.80;;;3.55;;
44764;SDS011;30484;52.382;5.260;2023-02-03T07:00:17;26.67;;;3.20;;
44764;SDS011;30484;52.382;5.260;2023-02-03T07:02:53;22.00;;;2.80;;
44764;SDS011;30484;52.382;5.260;2023-02-03T07:05:24;25.52;;;4.07;;
44764;SDS011;30484;52.382;5.260;2023-02-03T07:07:54;23.77;;;3.20;;
44764;SDS011;30484;52.382;5.260;2023-02-03T07:10:22;19.77;;;2.80;;
44764;SDS011;30484;52.382;5.260;2023-02-03T07:12:51;13.07;;;3.00;;
44764;SDS011;30484;52.382;5.260;2023-02-03T07:15:20;17.35;;;2.83;;
44764;SDS011;30484;52.382;5.260;2023-02-03T07:17:49;15.73;;;2.70;;
44764;SDS011;30484;52.382;5.260;2023-02-03T07:20:22;27.20;;;2.97;;
44764;SDS011;30484;52.382;5.260;2023-02-03T07:22:55;22.55;;;3.13;;
44764;SDS011;30484;52.382;5.260;2023-02-03T07:25:24;20.73;;;3.33;;
44764;SDS011;30484;52.382;5.260;2023-02-03T07:27:53;20.08;;;3.85;;
44764;SDS011;30484;52.382;5.260;2023-02-03T07:30:22;25.40;;;3.78;;
44764;SDS011;30484;52.382;5.260;2023-02-03T07:32:51;25.10;;;3.05;;
44764;SDS011;30484;52.382;5.260;2023-02-03T07:35:22;20.38;;;3.88;;
44764;SDS011;30484;52.382;5.260;2023-02-03T07:37:52;19.58;;;2.63;;
44764;SDS011;30484;52.382;5.260;2023-02-03T07:40:24;19.85;;;3.20;;
44764;SDS011;30484;52.382;5.260;2023-02-03T07:42:53;19.65;;;3.25;;
44764;SDS011;30484;52.382;5.260;2023-02-03T07:45:22;23.65;;;3.55;;
44764;SDS011;30484;52.382;5.260;2023-02-03T07:47:51;26.25;;;3.90;;
44764;SDS011;30484;52.382;5.260;2023-02-03T07:50:20;19.73;;;3.08;;
44764;SDS011;30484;52.382;5.260;2023-02-03T07:52:50;17.83;;;2.75;;
44764;SDS011;30484;52.382;5.260;2023-02-03T07:55:18;27.20;;;3.25;;
44764;SDS011;30484;52.382;5.260;2023-02-03T07:57:47;18.52;;;3.22;;
44764;SDS011;30484;52.382;5.260;2023-02-03T08:00:16;21.02;;;3.33;;
44764;SDS011;30484;52.382;5.260;2023-02-03T08:02:46;20.17;;;3.40;;
44764;SDS011;30484;52.382;5.260;2023-02-03T08:05:14;25.85;;;3.47;;
44764;SDS011;30484;52.382;5.260;2023-02-03T08:07:46;27.40;;;3.60;;
44764;SDS011;30484;52.382;5.260;2023-02-03T08:10:16;26.45;;;3.58;;
44764;SDS011;30484;52.382;5.260;2023-02-03T08:12:44;18.30;;;3.08;;
44764;SDS011;30484;52.382;5.260;2023-02-03T08:15:13;20.30;;;3.60;;
44764;SDS011;30484;52.382;5.260;2023-02-03T08:17:42;21.67;;;2.80;;
44764;SDS011;30484;52.382;5.260;2023-02-03T08:20:11;19.42;;;2.95;;
44764;SDS011;30484;52.382;5.260;2023-02-03T08:22:42;24.67;;;2.80;;
44764;SDS011;30484;52.382;5.260;2023-02-03T08:25:13;21.52;;;3.75;;
44764;SDS011;30484;52.382;5.260;2023-02-03T08:27:42;14.65;;;3.10;;
44764;SDS011;30484;52.382;5.260;2023-02-03T08:30:11;15.30;;;2.65;;
44764;SDS011;30484;52.382;5.260;2023-02-03T08:32:40;18.58;;;3.15;;
44764;SDS011;30484;52.382;5.260;2023-02-03T08:35:10;14.52;;;2.33;;
44764;SDS011;30484;52.382;5.260;2023-02-03T08:37:39;13.88;;;2.67;;
44764;SDS011;30484;52.382;5.260;2023-02-03T08:40:08;15.52;;;3.25;;
44764;SDS011;30484;52.382;5.260;2023-02-03T08:42:40;22.80;;;3.20;;
44764;SDS011;30484;52.382;5.260;2023-02-03T08:45:09;21.45;;;4.00;;
44764;SDS011;30484;52.382;5.260;2023-02-03T08:47:38;23.30;;;2.78;;
44764;SDS011;30484;52.382;5.260;2023-02-03T08:50:07;20.40;;;2.80;;
44764;SDS011;30484;52.382;5.260;2023-02-03T08:52:38;24.25;;;3.55;;
44764;SDS011;30484;52.382;5.260;2023-02-03T08:55:08;19.25;;;3.72;;
44764;SDS011;30484;52.382;5.260;2023-02-03T08:57:37;24.55;;;3.40;;
44764;SDS011;30484;52.382;5.260;2023-02-03T09:00:08;19.58;;;3.22;;
44764;SDS011;30484;52.382;5.260;2023-02-03T09:02:39;17.17;;;2.90;;
44764;SDS011;30484;52.382;5.260;2023-02-03T09:05:09;21.08;;;2.88;;
44764;SDS011;30484;52.382;5.260;2023-02-03T09:07:41;16.17;;;2.42;;
44764;SDS011;30484;52.382;5.260;2023-02-03T09:10:10;18.58;;;2.67;;
44764;SDS011;30484;52.382;5.260;2023-02-03T09:12:41;20.40;;;2.58;;
44764;SDS011;30484;52.382;5.260;2023-02-03T09:15:09;20.02;;;2.65;;
44764;SDS011;30484;52.382;5.260;2023-02-03T09:17:40;12.43;;;2.55;;
44764;SDS011;30484;52.382;5.260;2023-02-03T09:20:23;19.52;;;2.95;;
44764;SDS011;30484;52.382;5.260;2023-02-03T09:22:53;20.83;;;3.17;;
44764;SDS011;30484;52.382;5.260;2023-02-03T09:25:25;19.15;;;3.15;;
44764;SDS011;30484;52.382;5.260;2023-02-03T09:27:55;17.33;;;2.80;;
44764;SDS011;30484;52.382;5.260;2023-02-03T09:30:23;16.00;;;2.83;;
44764;SDS011;30484;52.382;5.260;2023-02-03T09:32:53;21.13;;;2.70;;
44764;SDS011;30484;52.382;5.260;2023-02-03T09:35:22;19.42;;;2.60;;
44764;SDS011;30484;52.382;5.260;2023-02-03T09:37:52;21.80;;;2.67;;
44764;SDS011;30484;52.382;5.260;2023-02-03T09:40:21;19.88;;;3.03;;
44764;SDS011;30484;52.382;5.260;2023-02-03T09:43:08;19.13;;;2.55;;
44764;SDS011;30484;52.382;5.260;2023-02-03T09:54:26;18.42;;;2.58;;
44764;SDS011;30484;52.382;5.260;2023-02-03T09:57:04;19.40;;;3.15;;
44764;SDS011;30484;52.382;5.260;2023-02-03T09:59:42;17.67;;;2.92;;
44764;SDS011;30484;52.382;5.260;2023-02-03T10:02:19;19.40;;;3.22;;
44764;SDS011;30484;52.382;5.260;2023-02-03T10:05:14;22.85;;;2.47;;
44764;SDS011;30484;52.382;5.260;2023-02-03T10:07:55;13.45;;;2.58;;
44764;SDS011;30484;52.382;5.260;2023-02-03T10:10:36;16.58;;;2.47;;
44764;SDS011;30484;52.382;5.260;2023-02-03T10:13:10;17.33;;;3.05;;
44764;SDS011;30484;52.382;5.260;2023-02-03T10:15:55;21.70;;;3.28;;
44764;SDS011;30484;52.382;5.260;2023-02-03T10:18:49;13.75;;;2.47;;
44764;SDS011;30484;52.382;5.260;2023-02-03T10:21:22;16.58;;;2.33;;
44764;SDS011;30484;52.382;5.260;2023-02-03T10:24:02;17.35;;;2.83;;
44764;SDS011;30484;52.382;5.260;2023-02-03T10:26:51;12.73;;;2.40;;
44764;SDS011;30484;52.382;5.260;2023-02-03T10:29:35;20.70;;;2.90;;
44764;SDS011;30484;52.382;5.260;2023-02-03T10:32:10;21.40;;;2.70;;
44764;SDS011;30484;52.382;5.260;2023-02-03T10:34:40;17.38;;;2.72;;
44764;SDS011;30484;52.382;5.260;2023-02-03T10:37:16;17.50;;;3.20;;
44764;SDS011;30484;52.382;5.260;2023-02-03T10:39:56;18.35;;;2.92;;
44764;SDS011;30484;52.382;5.260;2023-02-03T10:42:28;14.90;;;2.63;;
44764;SDS011;30484;52.382;5.260;2023-02-03T10:45:19;20.30;;;3.17;;
44764;SDS011;30484;52.382;5.260;2023-02-03T10:47:49;20.42;;;3.45;;
44764;SDS011;30484;52.382;5.260;2023-02-03T10:50:21;15.77;;;2.45;;
44764;SDS011;30484;52.382;5.260;2023-02-03T10:53:18;18.25;;;2.92;;
44764;SDS011;30484;52.382;5.260;2023-02-03T10:55:51;18.63;;;2.80;;
44764;SDS011;30484;52.382;5.260;2023-02-03T10:58:30;14.95;;;3.17;;
44764;SDS011;30484;52.382;5.260;2023-02-03T11:01:04;24.73;;;3.15;;
44764;SDS011;30484;52.382;5.260;2023-02-03T11:03:40;21.77;;;2.88;;
44764;SDS011;30484;52.382;5.260;2023-02-03T11:06:12;15.95;;;2.80;;
44764;SDS011;30484;52.382;5.260;2023-02-03T11:08:43;19.27;;;3.53;;
44764;SDS011;30484;52.382;5.260;2023-02-03T11:11:18;18.08;;;2.90;;
44764;SDS011;30484;52.382;5.260;2023-02-03T11:13:54;16.38;;;3.05;;
44764;SDS011;30484;52.382;5.260;2023-02-03T11:16:38;17.02;;;3.05;;
44764;SDS011;30484;52.382;5.260;2023-02-03T11:19:13;19.75;;;2.63;;
44764;SDS011;30484;52.382;5.260;2023-02-03T11:21:45;22.65;;;3.22;;
44764;SDS011;30484;52.382;5.260;2023-02-03T11:24:18;23.02;;;3.47;;
44764;SDS011;30484;52.382;5.260;2023-02-03T11:26:50;17.77;;;3.30;;
44764;SDS011;30484;52.382;5.260;2023-02-03T11:29:22;17.25;;;2.67;;
44764;SDS011;30484;52.382;5.260;2023-02-03T11:31:55;17.48;;;2.70;;
44764;SDS011;30484;52.382;5.260;2023-02-03T11:34:28;17.25;;;2.83;;
44764;SDS011;30484;52.382;5.260;2023-02-03T11:37:09;19.23;;;3.38;;
44764;SDS011;30484;52.382;5.260;2023-02-03T11:40:11;18.67;;;2.38;;
44764;SDS011;30484;52.382;5.260;2023-02-03T11:42:59;17.98;;;2.97;;
44764;SDS011;30484;52.382;5.260;2023-02-03T11:45:35;20.05;;;3.00;;
44764;SDS011;30484;52.382;5.260;2023-02-03T11:48:16;20.95;;;3.47;;
44764;SDS011;30484;52.382;5.260;2023-02-03T11:50:58;22.17;;;3.53;;
44764;SDS011;30484;52.382;5.260;2023-02-03T11:53:36;15.73;;;3.47;;
44764;SDS011;30484;52.382;5.260;2023-02-03T11:56:48;22.52;;;4.32;;
44764;SDS011;30484;52.382;5.260;2023-02-03T11:59:39;24.35;;;4.65;;
44764;SDS011;30484;52.382;5.260;2023-02-03T12:05:17;26.98;;;3.47;;
44764;SDS011;30484;52.382;5.260;2023-02-03T12:08:11;28.38;;;3.92;;
44764;SDS011;30484;52.382;5.260;2023-02-03T12:10:59;26.88;;;3.88;;
44764;SDS011;30484;52.382;5.260;2023-02-03T12:13:44;25.27;;;3.72;;
44764;SDS011;30484;52.382;5.260;2023-02-03T12:19:48;24.85;;;3.28;;
44764;SDS011;30484;52.382;5.260;2023-02-03T12:22:30;27.35;;;3.72;;
44764;SDS011;30484;52.382;5.260;2023-02-03T12:25:17;28.80;;;3.97;;
44764;SDS011;30484;52.382;5.260;2023-02-03T12:28:02;30.23;;;4.25;;
44764;SDS011;30484;52.382;5.260;2023-02-03T12:30:59;29.73;;;3.90;;
44764;SDS011;30484;52.382;5.260;2023-02-03T12:33:37;29.05;;;3.92;;
44764;SDS011;30484;52.382;5.260;2023-02-03T12:36:14;25.98;;;4.15;;
44764;SDS011;30484;52.382;5.260;2023-02-03T12:41:22;34.28;;;4.53;;
44764;SDS011;30484;52.382;5.260;2023-02-03T12:43:57;27.73;;;4.35;;
44764;SDS011;30484;52.382;5.260;2023-02-03T12:46:34;23.42;;;3.72;;
44764;SDS011;30484;52.382;5.260;2023-02-03T12:49:09;29.95;;;4.65;;
44764;SDS011;30484;52.382;5.260;2023-02-03T12:51:48;38.78;;;4.20;;
44764;SDS011;30484;52.382;5.260;2023-02-03T12:55:33;27.50;;;3.88;;
44764;SDS011;30484;52.382;5.260;2023-02-03T12:57:45;26.95;;;3.88;;
44764;SDS011;30484;52.382;5.260;2023-02-03T13:01:13;32.08;;;4.55;;
44764;SDS011;30484;52.382;5.260;2023-02-03T13:04:14;29.77;;;3.90;;
44764;SDS011;30484;52.382;5.260;2023-02-03T13:07:45;36.00;;;4.93;;
44764;SDS011;30484;52.382;5.260;2023-02-03T13:11:50;32.83;;;3.63;;
44764;SDS011;30484;52.382;5.260;2023-02-03T13:14:58;30.60;;;3.92;;
44764;SDS011;30484;52.382;5.260;2023-02-03T13:18:39;29.40;;;4.20;;
44764;SDS011;30484;52.382;5.260;2023-02-03T13:21:55;35.10;;;4.82;;
44764;SDS011;30484;52.382;5.260;2023-02-03T13:24:26;39.47;;;5.35;;
44764;SDS011;30484;52.382;5.260;2023-02-03T13:27:11;28.05;;;4.18;;
44764;SDS011;30484;52.382;5.260;2023-02-03T13:30:17;36.85;;;4.82;;
44764;SDS011;30484;52.382;5.260;2023-02-03T13:39:51;32.88;;;5.13;;
44764;SDS011;30484;52.382;5.260;2023-02-03T13:42:51;37.20;;;5.38;;
44764;SDS011;30484;52.382;5.260;2023-02-03T13:47:58;38.30;;;5.00;;
44764;SDS011;30484;52.382;5.260;2023-02-03T13:50:36;31.45;;;5.65;;
44764;SDS011;30484;52.382;5.260;2023-02-03T13:53:07;43.03;;;5.43;;
44764;SDS011;30484;52.382;5.260;2023-02-03T13:55:51;35.55;;;5.57;;
44764;SDS011;30484;52.382;5.260;2023-02-03T13:58:24;33.13;;;5.20;;
44764;SDS011;30484;52.382;5.260;2023-02-03T14:01:00;41.00;;;4.68;;
44764;SDS011;30484;52.382;5.260;2023-02-03T14:03:53;35.92;;;4.80;;
44764;SDS011;30484;52.382;5.260;2023-02-03T14:09:52;42.97;;;5.28;;
44764;SDS011;30484;52.382;5.260;2023-02-03T14:12:55;45.30;;;5.68;;
44764;SDS011;30484;52.382;5.260;2023-02-03T14:15:29;35.63;;;5.22;;
44764;SDS011;30484;52.382;5.260;2023-02-03T14:18:02;44.38;;;5.72;;
44764;SDS011;30484;52.382;5.260;2023-02-03T14:21:09;49.80;;;6.05;;
44764;SDS011;30484;52.382;5.260;2023-02-03T14:23:44;40.40;;;5.43;;
44764;SDS011;30484;52.382;5.260;2023-02-03T14:26:44;31.20;;;5.40;;
44764;SDS011;30484;52.382;5.260;2023-02-03T14:29:47;41.53;;;5.75;;
44764;SDS011;30484;52.382;5.260;2023-02-03T14:32:13;38.45;;;5.10;;
44764;SDS011;30484;52.382;5.260;2023-02-03T14:34:46;49.45;;;5.75;;
44764;SDS011;30484;52.382;5.260;2023-02-03T14:37:49;40.55;;;5.15;;
44764;SDS011;30484;52.382;5.260;2023-02-03T14:40:33;41.28;;;4.88;;
44764;SDS011;30484;52.382;5.260;2023-02-03T14:43:18;39.88;;;5.28;;
44764;SDS011;30484;52.382;5.260;2023-02-03T14:46:10;37.30;;;5.03;;
44764;SDS011;30484;52.382;5.260;2023-02-03T14:49:25;48.20;;;6.55;;
44764;SDS011;30484;52.382;5.260;2023-02-03T14:52:17;49.45;;;6.60;;
44764;SDS011;30484;52.382;5.260;2023-02-03T14:55:04;51.25;;;7.35;;
44764;SDS011;30484;52.382;5.260;2023-02-03T14:57:46;45.65;;;5.53;;
44764;SDS011;30484;52.382;5.260;2023-02-03T15:00:26;43.20;;;6.15;;
44764;SDS011;30484;52.382;5.260;2023-02-03T15:05:59;48.50;;;6.18;;
44764;SDS011;30484;52.382;5.260;2023-02-03T15:08:40;47.50;;;5.70;;
44764;SDS011;30484;52.382;5.260;2023-02-03T15:11:22;40.33;;;5.30;;
44764;SDS011;30484;52.382;5.260;2023-02-03T15:14:12;45.25;;;6.00;;
44764;SDS011;30484;52.382;5.260;2023-02-03T15:16:55;62.30;;;6.78;;
44764;SDS011;30484;52.382;5.260;2023-02-03T15:19:27;41.63;;;5.22;;
44764;SDS011;30484;52.382;5.260;2023-02-03T15:22:01;43.97;;;6.60;;
44764;SDS011;30484;52.382;5.260;2023-02-03T15:24:47;36.42;;;4.80;;
44764;SDS011;30484;52.382;5.260;2023-02-03T15:27:19;50.85;;;6.03;;
44764;SDS011;30484;52.382;5.260;2023-02-03T15:29:49;50.47;;;5.80;;
44764;SDS011;30484;52.382;5.260;2023-02-03T15:32:24;48.67;;;5.83;;
44764;SDS011;30484;52.382;5.260;2023-02-03T15:34:57;42.35;;;6.25;;
44764;SDS011;30484;52.382;5.260;2023-02-03T15:37:31;40.95;;;5.22;;
44764;SDS011;30484;52.382;5.260;2023-02-03T15:40:08;39.20;;;5.55;;
44764;SDS011;30484;52.382;5.260;2023-02-03T15:42:46;48.35;;;5.65;;
44764;SDS011;30484;52.382;5.260;2023-02-03T15:45:25;43.00;;;5.07;;
44764;SDS011;30484;52.382;5.260;2023-02-03T15:48:01;41.58;;;5.43;;
44764;SDS011;30484;52.382;5.260;2023-02-03T15:50:39;46.63;;;5.68;;
44764;SDS011;30484;52.382;5.260;2023-02-03T15:53:14;49.95;;;6.63;;
44764;SDS011;30484;52.382;5.260;2023-02-03T15:55:50;59.38;;;6.43;;
44764;SDS011;30484;52.382;5.260;2023-02-03T15:58:24;38.67;;;5.03;;
44764;SDS011;30484;52.382;5.260;2023-02-03T16:00:55;41.50;;;5.90;;
44764;SDS011;30484;52.382;5.260;2023-02-03T16:03:32;43.13;;;4.78;;